Pilot Magazine UKGA

About You

Log In Register UKGA membership

Flight planning

Flight planning New flightplan NOTAM map LARS map & NOTAMs Danger area, mil. & TRA activations Weather map GPS route download Find waypoints Your waypoints New waypoint

Forums

Forums Currently discussing "NOTAM Map"

Other items

Articles Events Links News Surveys Tips Other users Feedback UKGA membership About UKGA

TAFs

UK

TAF EGAA 151700Z 1518/1618 22005KT 9999 SCT030 PROB30 
      TEMPO 1600/1618 7000 SHRA PROB40 
      TEMPO 1604/1609 SCT007 BKN014
      
TAF AMD EGAC 151833Z 1518/1521 14009KT 9999 SCT030
      
TAF COR EGAE 151834Z 1518/1521 VRB05KT 9999 SCT040
      
TAF EGBB 151704Z 1518/1618 11004KT 9999 FEW045 PROB30 1601/1608 9000
      
TAF EGBJ 151355Z 1515/1519 06004KT 9999 FEW045
      
TAF EGCC 151700Z 1518/1624 VRB02KT 9999 FEW040 PROB30 
      TEMPO 1600/1606 8000 
      BECMG 1612/1615 28010KT 
      BECMG 1621/1624 VRB03KT
      
TAF EGCK 160156Z 1603/1612 23006KT 9999 SCT035= TAF EGLC 160201Z 1603/1612 23005KT 9999 FEW030
      
TAF AMD EGCN 160133Z 1601/1624 VRB03KT 9999 FEW040 PROB30 
      TEMPO 1601/1606 3000 BR PROB30 
      TEMPO 1612/1615 7000 SHRA
      
TAF EGDM 151336Z 1515/1524 04008KT 9999 FEW045
      
TAF EGDR 151820Z 1518/1603 12008KT 9999 FEW018
      
TAF EGDY 151949Z 1518/1603 CNL
      
TAF EGEC 151356Z 1515/1517 16009KT 9999 FEW045
      
TAF EGFF 151704Z 1518/1618 08004KT 9999 FEW045 PROB30 
      TEMPO 1523/1608 7000 PROB30 
      TEMPO 1603/1609 BKN009 
      BECMG 1609/1612 24010KT
      
TAF EGGD 151655Z 1518/1618 08005KT 9999 FEW040 PROB30 
      TEMPO 1602/1606 6000 BKN008 PROB30 
      TEMPO 1610/1615 8000 SHRA 
      BECMG 1615/1618 25010KT
      
TAF EGGP 151700Z 1518/1618 23005KT 9999 FEW030 PROB30 
      TEMPO 1600/1606 8000 
      BECMG 1609/1612 32010KT
      
TAF EGGW 151655Z 1518/1618 05005KT 9999 FEW035 PROB30 1602/1607 8000
      
TAF EGHC 151355Z 1515/1518 16009KT 9999 FEW020= TAF EGHE 151355Z 1515/1518 14012KT 9999 FEW045
      
TAF EGHE 151355Z 1515/1518 14012KT 9999 FEW045
      
TAF EGHH 151959Z 1521/1606 18006KT 9999 FEW045 
      BECMG 1600/1603 7000 PROB40 1601/1606 2000 BR
      
TAF EGHI 151704Z 1518/1522 06006KT 9999 FEW045
      
TAF EGHQ 151704Z 1518/1521 17008KT 9999 SCT030
      
TAF EGJA 151932Z 1519/1600 CNL= TAF EGUW 151932Z 1521/1601 09002KT CAVOK
      
TAF EGJB 160156Z 1603/1612 08005KT CAVOK PROB30 
      TEMPO 1604/1608 BKN013
      
TAF EGJJ 160156Z 1603/1612 08005KT CAVOK PROB30 
      TEMPO 1604/1608 BKN013
      
TAF EGKA 151358Z 1515/1519 03006KT 9999 SCT040 PROB40 1515/1519 16010KT
      
TAF EGKB 152004Z 1521/1606 08008KT 9999 FEW035
      
TAF EGKK 151712Z 1518/1624 04006KT 9999 SCT030 
      BECMG 1523/1602 8000 PROB30 1602/1606 3000 MIFG BR 
      BECMG 1606/1608 9999
      
TAF EGLC 160201Z 1603/1612 23005KT 9999 FEW030
      
TAF EGLF 152004Z 1521/1606 08006KT 9999 FEW040
      
TAF EGLL 151710Z 1518/1624 03006KT 9999 SCT030 PROB40 1600/1607 7000 
      BECMG 1618/1621 23010KT
      
TAF EGMC 160201Z 1603/1612 23003KT 9999 FEW040 PROB40 
      TEMPO 1603/1606 6000
      
TAF EGMD 160201Z 1603/1612 35005KT 9999 FEW040 PROB30 
      TEMPO 1603/1606 6000 
      BECMG 1608/1611 22010KT
      
TAF EGNC 151356Z 1515/1518 29008KT 9999 FEW045
      
TAF EGNH 151700Z 1518/1520 33007KT 9999 SCT035
      
TAF EGNJ 160156Z 1603/1612 09008KT 9999 SCT040
      
TAF EGNM 151655Z 1518/1618 VRB03KT 9999 FEW040 
      BECMG 1608/1611 26010KT PROB30 
      TEMPO 1610/1612 7000 SHRA
      
TAF AMD EGNO 151605Z 1516/1518 30008KT 9999 FEW035
      
TAF EGNR 151700Z 1518/1520 33008KT 9999 FEW020
      
TAF EGNS 151700Z 1518/1521 16006KT 9999 FEW004
      
TAF EGNT 151700Z 1518/1618 09005KT 9999 FEW040 PROB30 
      TEMPO 1601/1606 8000 
      BECMG 1609/1612 28010KT
      
TAF EGNV 151700Z 1518/1521 VRB03KT 9999 FEW030
      
TAF EGNX 151704Z 1518/1618 VRB04KT 9999 FEW045 PROB30 
      TEMPO 1602/1606 9000
      
TAF EGOS 151328Z 1515/1518 VRB05KT 9999 SCT045
      
TAF EGOV 151657Z 1515/1519 CNL= TAF EGXE 151656Z 1515/1518 CNL
      
TAF EGOW 151014Z 1512/1517 27008KT 9999 FEW045
      
TAF EGPA 160201Z 1603/1612 19006KT 9999 FEW012 
      TEMPO 1603/1612 BKN012 PROB40 
      TEMPO 1607/1612 6000 BKN007
      
TAF EGPB 160201Z 1603/1612 03006KT 9999 SCT005 BKN022 
      BECMG 1603/1605 13010KT 
      TEMPO 1603/1612 3000 BR BKN003 PROB40 
      TEMPO 1603/1612 0200 FG VV///
      
TAF EGPC 160201Z 1603/1612 14007KT 9999 FEW015 
      TEMPO 1603/1605 6000 PROB40 
      TEMPO 1603/1605 2000 BR 
      TEMPO 1605/1612 2000 BR BKN002
      
TAF EGPD 151702Z 1518/1618 12009KT 9999 FEW020 PROB40 1600/1607 3000 BR BKN004 PROB40 
      TEMPO 1611/1618 7000 SHRA
      
TAF EGPE 160201Z 1603/1612 03009KT 9999 FEW012 
      TEMPO 1603/1607 3000 BR BKN003 PROB30 1603/1606 0300 FG VV///
      
TAF AMD EGPF 152358Z 1600/1624 23006KT 9999 FEW044 
      TEMPO 1600/1606 4000 BR
      
TAF AMD EGPH 160206Z 1602/1624 25007KT 9999 FEW015 
      TEMPO 1602/1608 4000 BR PROB30 
      TEMPO 1602/1608 1200 BKN002 PROB30 
      TEMPO 1612/1618 7000 SHRA
      
TAF EGPI 160156Z 1603/1612 24008KT 9999 SCT035 PROB30 
      TEMPO 1603/1612 7000 SHRA
      
TAF EGPK 151702Z 1518/1618 22009KT 9999 FEW040 PROB30 
      TEMPO 1603/1612 BKN010
      
TAF EGPL 160201Z 1603/1612 21009KT 9999 FEW015 PROB30 
      TEMPO 1603/1606 8000 -SHRA 
      TEMPO 1607/1612 BKN007
      
TAF EGPM 160201Z 1603/1612 03006KT 9999 SCT005 BKN022 
      BECMG 1603/1605 13010KT 
      TEMPO 1603/1612 3000 BR BKN003 PROB40 
      TEMPO 1603/1612 0300 FG VV///
      
TAF EGPN 151704Z 1518/1520 12008KT 9999 FEW020
      
TAF EGPO 160201Z 1603/1612 20006KT 9999 FEW015 PROB30 
      TEMPO 1606/1611 7000 SHRA
      
TAF EGPU 151404Z 1515/1518 15009KT 9999 FEW035
      
TAF EGQL 160132Z 1603/1612 VRB02KT 9999 FEW045 PROB40 1603/1607 0500 FG BKN000
      
TAF EGQS 160134Z 1603/1621 25005KT 9999 BKN005 PROB30 1603/1607 0500 FG BKN000 
      BECMG 1605/1608 FEW007 PROB30 
      TEMPO 1613/1620 7000 SHRA
      
TAF EGSC 151355Z 1515/1519 02006KT 9999 SCT025
      
TAF EGSH 160159Z 1603/1612 VRB04KT 9999 FEW035
      
TAF AMD EGSS 160136Z 1601/1706 23005KT 9999 FEW035 PROB40 1601/1607 6000
      
TAF EGSY 151059Z 1512/1516 13008KT 9999 FEW035
      
TAF EGTC 151355Z 1515/1518 07004KT 9999 SCT025
      
TAF EGTE 151959Z 1521/1603 16008KT 9999 FEW035 PROB30 1523/1603 9000
      
TAF EGTK 151704Z 1518/1522 10004KT 9999 FEW040
      
TAF EGUB 151844Z 1518/1612 CNL= TAF 
      TAF AMD KCBM 151850Z 1518/1623 16012KT 9999 SCT030 BKN050 BKN100 QNH2996INS 
      TEMPO 1522/1601 16015G25KT 4800 -TSRA OVC025CB 
      BECMG 1605/1606 16012KT 9999 BKN010 OVC015 QNH3000INS 
      BECMG 1611/1612 19012G18KT 9999 SCT010 BKN015 BKN030 QNH3003INS 
      BECMG 1619/1620 19015G25KT 9999 SCT030 BKN050 QNH2996INS 
      TEMPO 1620/1623 4800 -SHRA BKN040 TX28/1520Z TN22/1612Z
      
TAF EGUL 152100Z 1521/1703 25009KT 9999 SKC QNH3010INS 
      BECMG 1611/1612 30006KT 9999 BKN050 QNH3005INS TX24/1615Z TN11/1603Z LAST NO 
      AMDS AFT 1522 NEXT 1605
      
TAF EGUN 152010Z 1520/1702 VRB06KT 9999 SKC QNH3014INS 
      BECMG 1601/1602 VRB06KT 8000 BR SKC QNH3013INS 
      BECMG 1606/1607 VRB06KT 9999 NSW SCT030 QNH3003INS TX23/1613Z TN10/1602Z
      
TAF EGUW 151932Z 1521/1601 09002KT CAVOK
      
TAF EGVN 160145Z 1603/1703 23003KT CAVOK PROB30 1603/1607 6000 HZ
      
TAF EGVO 160008Z 1600/1612 CNL
      
TAF EGVP 151927Z 1521/1601 19005KT CAVOK
      
TAF EGWC 151328Z 1515/1518 VRB05KT 9999 SCT040
      
TAF AMD EGWU 152043Z 1521/1615 CNL
      
TAF EGXC 160115Z 1603/1621 VRB03KT 9999 FEW040
      
TAF EGXE 151334Z 1515/1518 VRB03KT 9999 SCT048
      
TAF EGXP 151024Z 1512/1517 04005KT 9999 BKN028
      
TAF EGXT 151618Z 1512/1517 CNL
      
TAF EGXU 151315Z 1515/1518 VRB05KT 9999 SCT045
      
TAF EGXW 160133Z 1603/1621 VRB04KT 9999 FEW045
      
TAF AMD EGYD 151634Z 1515/1519 CNL
      
TAF EGYM 151616Z 1518/1524 VRB05KT 9999 SCT035
      
TAF EGYP 160143Z 1603/1621 01015G25KT 9999 FEW006 520003 
      TEMPO 1603/1609 36033G43KT BKN006 530003 PROB40 
      TEMPO 1603/1614 VRB08KT 560003 PROB30 
      TEMPO 1603/1606 3000 -RADZ SCT004 
      TEMPO 1609/1614 36025G35KT SCT006 530003 
      BECMG 1614/1616 33016KT 50////
      

About You

Log In Register UKGA membership

Airfields

Interactive airfield map Search by name Search by postcode Search by location Fuel prices Pilot reviews Latest
(No favourites selected)

Flight planning

Flight planning New flightplan NOTAM map LARS map & NOTAMs Danger area, mil. & TRA activations Weather map GPS route download Find waypoints Your waypoints New waypoint

Forums

Forums Currently discussing "NOTAM Map"

Other items

Articles Events Links News Surveys Tips Other users Feedback UKGA membership About UKGA